createdAt,value
2022-11-17T07:15:46.486Z,27.30
2022-11-17T07:20:50.075Z,25.77
2022-11-17T07:25:55.901Z,24.40
2022-11-17T07:31:02.967Z,26.35
2022-11-17T07:36:09.449Z,24.52
2022-11-17T07:41:15.189Z,24.42
2022-11-17T07:46:20.588Z,21.15
2022-11-17T07:51:26.683Z,21.75
2022-11-17T07:56:30.339Z,22.80
2022-11-17T08:01:35.308Z,23.75
2022-11-17T08:12:00.615Z,23.15
2022-11-17T08:17:05.708Z,23.77
2022-11-17T08:22:09.304Z,22.75
2022-11-17T08:27:15.375Z,24.27
2022-11-17T08:32:20.432Z,24.92
2022-11-17T08:37:24.146Z,28.42
2022-11-17T08:42:27.739Z,30.67
2022-11-17T08:47:32.755Z,29.52
2022-11-17T08:52:36.565Z,26.63
2022-11-17T08:57:40.244Z,28.25
2022-11-17T09:02:45.990Z,29.23
2022-11-17T09:07:49.716Z,27.85
2022-11-17T09:12:57.038Z,26.67
2022-11-17T09:18:03.120Z,27.95
2022-11-17T09:23:07.060Z,27.55
2022-11-17T09:28:10.718Z,27.85
2022-11-17T09:33:15.706Z,25.23
2022-11-17T09:43:30.072Z,25.63
2022-11-17T09:48:42.573Z,23.88
2022-11-17T09:53:55.274Z,24.63
2022-11-17T09:59:05.367Z,28.27
2022-11-17T10:04:14.239Z,24.42
2022-11-17T10:09:30.451Z,27.65
2022-11-17T10:14:40.659Z,31.23
2022-11-17T10:19:48.319Z,25.48
2022-11-17T10:24:57.904Z,23.17
2022-11-17T10:30:03.730Z,26.13
2022-11-17T10:35:19.384Z,22.75
2022-11-17T10:40:26.056Z,23.33
2022-11-17T10:45:30.409Z,23.50
2022-11-17T10:50:35.697Z,25.42
2022-11-17T10:55:39.923Z,21.85
2022-11-17T11:00:45.712Z,23.70
2022-11-17T11:05:59.225Z,23.67
2022-11-17T11:11:07.667Z,23.67
2022-11-17T11:16:13.673Z,22.83
2022-11-17T11:21:31.660Z,20.27
2022-11-17T11:26:51.863Z,22.15
2022-11-17T11:32:10.708Z,24.70
2022-11-17T11:37:17.318Z,25.80
2022-11-17T11:42:37.937Z,23.00
2022-11-17T11:47:54.099Z,20.38
2022-11-17T11:53:05.535Z,22.10
2022-11-17T11:58:16.444Z,19.77
2022-11-17T12:03:26.373Z,22.48
2022-11-17T12:08:42.183Z,20.60
2022-11-17T12:14:02.186Z,22.67
2022-11-17T12:19:45.086Z,22.52
2022-11-17T12:24:50.347Z,19.60
2022-11-17T12:29:54.041Z,20.75
2022-11-17T12:35:25.692Z,19.75
2022-11-17T12:40:47.770Z,21.35
2022-11-17T12:46:07.888Z,21.35
2022-11-17T12:51:23.336Z,22.00
2022-11-17T12:56:51.775Z,20.35
2022-11-17T13:02:05.563Z,21.48
2022-11-17T13:07:19.794Z,21.75
2022-11-17T13:12:26.070Z,20.40
2022-11-17T13:17:32.810Z,19.98
2022-11-17T13:22:41.618Z,27.52
2022-11-17T13:27:53.145Z,19.98
2022-11-17T13:33:04.092Z,20.52
2022-11-17T13:38:19.494Z,20.27
2022-11-17T13:43:45.621Z,21.95
2022-11-17T13:48:51.170Z,23.75
2022-11-17T13:53:57.231Z,27.92
2022-11-17T13:59:05.071Z,23.38
2022-11-17T14:04:20.127Z,23.00
2022-11-17T14:09:25.368Z,23.83
2022-11-17T14:14:37.948Z,23.13
2022-11-17T14:19:43.831Z,26.00
2022-11-17T14:24:47.875Z,26.52
2022-11-17T14:29:52.865Z,27.73
2022-11-17T14:34:56.651Z,24.30
2022-11-17T14:40:05.137Z,26.63
2022-11-17T14:45:14.312Z,27.85
2022-11-17T14:50:19.364Z,26.45
2022-11-17T14:55:23.119Z,27.95
2022-11-17T15:00:28.445Z,28.20
2022-11-17T15:05:32.070Z,25.60
2022-11-17T15:10:38.009Z,26.98
2022-11-17T15:15:43.072Z,28.83
2022-11-17T15:20:47.282Z,29.40
2022-11-17T15:25:51.155Z,32.07
2022-11-17T15:30:56.574Z,29.17
2022-11-17T15:36:04.412Z,34.10
2022-11-17T15:41:09.396Z,32.75
2022-11-17T15:46:19.543Z,30.42
2022-11-17T15:51:25.189Z,32.13
2022-11-17T15:56:31.322Z,30.85
2022-11-17T16:01:37.817Z,32.72
2022-11-17T16:06:42.884Z,31.15
2022-11-17T16:11:46.617Z,33.30
2022-11-17T16:16:51.729Z,36.60
2022-11-17T16:21:55.576Z,30.98
2022-11-17T16:26:59.265Z,34.60
2022-11-17T16:32:04.541Z,38.35
2022-11-17T16:37:08.527Z,32.53
2022-11-17T16:42:12.283Z,30.15
2022-11-17T16:47:17.519Z,34.30
2022-11-17T16:57:47.852Z,34.30
2022-11-17T17:02:53.885Z,38.42
2022-11-17T17:13:01.574Z,38.65
2022-11-17T17:18:06.761Z,38.00
2022-11-17T17:28:14.005Z,37.47
2022-11-17T17:33:19.163Z,39.83
2022-11-17T17:43:26.294Z,41.20
2022-11-17T17:48:31.921Z,45.92
2022-11-17T17:53:41.934Z,46.55
2022-11-17T17:58:48.035Z,47.28
2022-11-17T18:04:00.885Z,43.00
2022-11-17T18:09:24.426Z,44.00
2022-11-17T18:14:28.324Z,45.50
2022-11-17T18:19:36.270Z,48.28
2022-11-17T18:24:42.176Z,44.15
2022-11-17T18:29:45.802Z,45.22
2022-11-17T18:35:02.227Z,44.28
2022-11-17T18:40:12.819Z,45.90
2022-11-17T18:45:16.523Z,41.20
2022-11-17T18:50:57.848Z,41.58
2022-11-17T18:56:03.774Z,37.97
2022-11-17T19:01:09.247Z,36.38
2022-11-17T19:06:16.424Z,34.38
2022-11-17T19:11:23.064Z,39.25
2022-11-17T19:16:27.584Z,40.85
2022-11-17T19:21:35.084Z,41.45
2022-11-17T19:26:38.714Z,37.38
2022-11-17T19:31:42.639Z,38.17
2022-11-17T19:36:47.759Z,39.55
2022-11-17T19:41:54.529Z,42.58
2022-11-17T19:46:58.190Z,45.75
2022-11-17T19:52:12.391Z,38.80
2022-11-17T19:57:16.177Z,44.70
2022-11-17T20:02:19.855Z,39.40
2022-11-17T20:07:27.920Z,43.55
2022-11-17T20:17:37.823Z,44.17
2022-11-17T20:22:48.627Z,44.47
2022-11-17T20:27:52.602Z,47.65
2022-11-17T20:33:00.541Z,42.28
2022-11-17T20:38:07.316Z,40.60
2022-11-17T20:43:12.649Z,44.65
2022-11-17T20:48:16.615Z,43.38
2022-11-17T20:53:30.581Z,41.78
2022-11-17T20:58:38.633Z,38.90
2022-11-17T21:03:42.593Z,37.20
2022-11-17T21:08:47.826Z,39.80
2022-11-17T21:13:52.708Z,38.97
2022-11-17T21:18:56.619Z,37.03
2022-11-17T21:24:04.996Z,37.53
2022-11-17T21:29:08.695Z,36.58
2022-11-17T21:34:15.450Z,37.33
2022-11-17T21:39:20.882Z,38.67
2022-11-17T21:44:27.868Z,37.35
2022-11-17T21:49:31.793Z,40.25
2022-11-17T21:54:37.101Z,39.35
2022-11-17T21:59:41.275Z,38.67
2022-11-17T22:04:45.093Z,39.43
2022-11-17T22:09:52.297Z,39.40
2022-11-17T22:19:59.461Z,38.92
2022-11-17T22:25:29.962Z,43.53
2022-11-17T22:30:31.087Z,43.50
2022-11-17T22:35:38.443Z,43.10
2022-11-17T22:40:46.008Z,40.50
